createdAt,value
2018-01-30T00:00:54.613Z,18.80
2018-01-30T00:03:24.759Z,18.80
2018-01-30T00:06:01.951Z,18.80
2018-01-30T00:08:47.167Z,18.80
2018-01-30T00:11:19.920Z,18.70
2018-01-30T00:13:49.393Z,18.80
2018-01-30T00:16:17.696Z,18.80
2018-01-30T00:18:46.164Z,18.80
2018-01-30T00:21:14.511Z,18.80
2018-01-30T00:23:43.493Z,18.80
2018-01-30T00:29:59.768Z,18.80
2018-01-30T00:32:28.280Z,18.70
2018-01-30T00:34:56.779Z,18.80
2018-01-30T00:37:27.152Z,18.80
2018-01-30T00:39:56.198Z,18.70
2018-01-30T00:42:27.403Z,18.80
2018-01-30T00:45:27.768Z,18.80
2018-01-30T00:48:00.369Z,18.80
2018-01-30T00:50:30.665Z,18.70
2018-01-30T00:53:01.673Z,18.70
2018-01-30T00:55:30.009Z,18.70
2018-01-30T00:57:58.798Z,18.70
2018-01-30T01:00:27.996Z,18.70
2018-01-30T01:02:56.265Z,18.70
2018-01-30T01:05:24.425Z,18.70
2018-01-30T01:07:52.757Z,18.70
2018-01-30T01:10:22.021Z,18.70
2018-01-30T01:12:50.299Z,18.70
2018-01-30T01:15:18.937Z,18.80
2018-01-30T01:17:47.231Z,18.80
2018-01-30T01:20:15.511Z,18.80
2018-01-30T01:22:48.217Z,18.80
2018-01-30T01:25:18.812Z,18.70
2018-01-30T01:27:48.866Z,18.80
2018-01-30T01:33:00.183Z,18.80
2018-01-30T01:35:43.412Z,18.80
2018-01-30T01:38:21.333Z,18.80
2018-01-30T01:41:04.281Z,18.80
2018-01-30T01:43:33.681Z,18.70
2018-01-30T01:46:02.216Z,18.70
2018-01-30T01:48:39.489Z,18.70
2018-01-30T01:51:15.498Z,18.70
2018-01-30T01:53:44.472Z,18.70
2018-01-30T01:56:15.675Z,18.80
2018-01-30T01:58:44.436Z,18.70
2018-01-30T02:01:12.985Z,18.70
2018-01-30T02:03:41.370Z,18.70
2018-01-30T02:06:12.104Z,18.70
2018-01-30T02:08:42.955Z,18.70
2018-01-30T02:11:12.478Z,18.70
2018-01-30T02:13:55.389Z,18.70
2018-01-30T02:16:31.121Z,18.70
2018-01-30T02:19:02.745Z,18.70
2018-01-30T02:21:48.530Z,18.70
2018-01-30T02:24:23.868Z,18.70
2018-01-30T02:27:01.520Z,18.70
2018-01-30T02:29:42.788Z,18.70
2018-01-30T02:34:55.902Z,18.70
2018-01-30T02:37:27.766Z,18.70
2018-01-30T02:39:56.389Z,18.70
2018-01-30T02:42:24.700Z,18.70
2018-01-30T02:44:53.652Z,18.70
2018-01-30T02:47:22.233Z,18.70
2018-01-30T02:49:50.381Z,18.70
2018-01-30T02:52:18.513Z,18.70
2018-01-30T02:54:46.689Z,18.70
2018-01-30T02:57:14.849Z,18.70
2018-01-30T02:59:43.030Z,18.70
2018-01-30T03:02:11.297Z,18.70
2018-01-30T03:04:39.507Z,18.70
2018-01-30T03:07:08.426Z,18.70
2018-01-30T03:09:36.710Z,18.70
2018-01-30T03:12:04.936Z,18.70
2018-01-30T03:14:33.908Z,18.70
2018-01-30T03:17:02.093Z,18.70
2018-01-30T03:19:30.375Z,18.70
2018-01-30T03:21:58.577Z,18.70
2018-01-30T03:24:26.945Z,18.70
2018-01-30T03:26:55.231Z,18.70
2018-01-30T03:29:23.398Z,18.60
2018-01-30T03:31:51.620Z,18.60
2018-01-30T03:34:19.808Z,18.70
2018-01-30T03:36:47.964Z,18.70
2018-01-30T03:39:16.154Z,18.70
2018-01-30T03:41:44.315Z,18.70
2018-01-30T03:44:12.500Z,18.60
2018-01-30T03:46:40.664Z,18.70
2018-01-30T03:49:08.843Z,18.70
2018-01-30T03:51:37.290Z,18.70
2018-01-30T03:54:05.562Z,18.70
2018-01-30T03:56:33.747Z,18.70
2018-01-30T03:59:01.981Z,18.70
2018-01-30T04:01:30.524Z,18.70
2018-01-30T04:03:58.921Z,18.70
2018-01-30T04:06:27.085Z,18.70
2018-01-30T04:08:56.344Z,18.70
2018-01-30T04:11:24.516Z,18.60
2018-01-30T04:13:52.732Z,18.60
2018-01-30T04:16:20.956Z,18.60
2018-01-30T04:18:49.170Z,18.60
2018-01-30T04:21:17.393Z,18.60
2018-01-30T04:23:45.595Z,18.60
2018-01-30T04:26:13.729Z,18.60
2018-01-30T04:28:41.845Z,18.60
2018-01-30T04:31:10.316Z,18.60
2018-01-30T04:33:38.515Z,18.60
2018-01-30T04:36:06.710Z,18.60
2018-01-30T04:38:35.716Z,18.60
2018-01-30T04:41:04.649Z,18.60
2018-01-30T04:43:32.936Z,18.60
2018-01-30T04:46:01.430Z,18.60
2018-01-30T04:48:29.730Z,18.60
2018-01-30T04:50:58.734Z,18.60
2018-01-30T04:53:27.799Z,18.60
2018-01-30T04:55:55.958Z,18.50
2018-01-30T04:58:24.188Z,18.60
2018-01-30T05:00:52.701Z,18.60
2018-01-30T05:03:20.940Z,18.70
2018-01-30T05:05:49.111Z,18.70
2018-01-30T05:08:17.328Z,18.80
2018-01-30T05:10:45.581Z,18.90
2018-01-30T05:13:13.770Z,18.90
2018-01-30T05:15:41.952Z,19.00
2018-01-30T05:18:10.858Z,19.00
2018-01-30T05:20:39.154Z,19.00
2018-01-30T05:23:08.185Z,19.10
2018-01-30T05:25:36.352Z,19.10
2018-01-30T05:28:04.656Z,19.20
2018-01-30T05:30:32.855Z,19.20
2018-01-30T05:33:01.048Z,19.20
2018-01-30T05:35:30.010Z,19.30
2018-01-30T05:37:58.237Z,19.20
2018-01-30T05:40:27.236Z,19.30
2018-01-30T05:42:55.477Z,19.20
2018-01-30T05:45:24.461Z,19.30
2018-01-30T05:47:52.684Z,19.20
2018-01-30T05:50:20.861Z,19.30
2018-01-30T05:52:49.050Z,19.30
2018-01-30T05:55:17.233Z,19.30
2018-01-30T05:57:46.753Z,19.30
2018-01-30T06:00:14.957Z,19.20
2018-01-30T06:02:44.907Z,19.30
2018-01-30T06:05:13.127Z,19.30
2018-01-30T06:07:41.390Z,19.30
2018-01-30T06:10:09.596Z,19.30
2018-01-30T06:12:37.802Z,19.30
2018-01-30T06:15:06.143Z,19.40
2018-01-30T06:17:34.374Z,19.40
2018-01-30T06:20:04.318Z,19.40
2018-01-30T06:22:33.404Z,19.40
2018-01-30T06:25:01.622Z,19.40
2018-01-30T06:27:29.814Z,19.50
2018-01-30T06:29:58.113Z,19.60
2018-01-30T06:32:26.302Z,19.60
2018-01-30T06:34:55.378Z,19.70
2018-01-30T06:37:24.477Z,19.70
2018-01-30T06:39:52.683Z,19.70
2018-01-30T06:42:20.923Z,19.70
2018-01-30T06:44:49.163Z,19.70
2018-01-30T06:47:17.379Z,19.70
2018-01-30T06:49:46.372Z,19.80
2018-01-30T06:52:15.415Z,19.80
2018-01-30T06:54:43.642Z,19.80
2018-01-30T06:57:12.066Z,19.70
2018-01-30T06:59:40.286Z,19.80
2018-01-30T07:02:08.530Z,19.70
2018-01-30T07:04:36.755Z,19.70
2018-01-30T07:07:04.986Z,19.70
2018-01-30T07:09:33.209Z,19.70
2018-01-30T07:12:01.437Z,19.70
2018-01-30T07:14:29.901Z,19.80
2018-01-30T07:16:58.170Z,19.70
2018-01-30T07:19:26.375Z,19.70
2018-01-30T07:21:54.978Z,19.70
2018-01-30T07:24:23.975Z,19.70
2018-01-30T07:26:52.937Z,19.70
2018-01-30T07:29:21.175Z,19.70
2018-01-30T07:31:49.375Z,19.70
2018-01-30T07:34:17.566Z,19.70
2018-01-30T07:36:46.125Z,19.70
2018-01-30T07:39:14.367Z,19.70
2018-01-30T07:41:42.555Z,19.70
2018-01-30T07:44:10.800Z,19.70
2018-01-30T07:46:39.785Z,19.70
2018-01-30T07:49:08.039Z,19.70
2018-01-30T07:51:36.314Z,19.70
2018-01-30T07:54:04.509Z,19.70
2018-01-30T07:56:33.457Z,19.70
2018-01-30T07:59:01.704Z,19.70
2018-01-30T08:01:29.873Z,19.70
2018-01-30T08:03:58.146Z,19.70
2018-01-30T08:06:26.416Z,19.70
2018-01-30T08:08:54.635Z,19.70
2018-01-30T08:11:22.910Z,19.70
2018-01-30T08:13:51.616Z,19.80
2018-01-30T08:16:20.614Z,19.80
2018-01-30T08:18:49.638Z,19.80
2018-01-30T08:21:17.816Z,19.80
2018-01-30T08:23:46.050Z,19.80
2018-01-30T08:26:14.254Z,19.80
2018-01-30T08:28:42.495Z,19.80
2018-01-30T08:31:10.793Z,19.70
2018-01-30T08:33:39.013Z,19.70
2018-01-30T08:36:07.255Z,19.70
2018-01-30T08:38:36.338Z,19.70
2018-01-30T08:41:05.342Z,19.70
2018-01-30T08:43:33.525Z,19.70
2018-01-30T08:46:01.756Z,19.70
2018-01-30T08:48:30.133Z,19.70
2018-01-30T08:50:58.368Z,19.70
2018-01-30T08:53:26.797Z,19.60
2018-01-30T08:55:55.725Z,19.70
2018-01-30T08:58:23.912Z,19.60
2018-01-30T09:00:52.837Z,19.60
2018-01-30T09:03:21.028Z,19.60
2018-01-30T09:05:49.981Z,19.60
2018-01-30T09:08:18.137Z,19.60
2018-01-30T09:10:46.407Z,19.50
2018-01-30T09:13:14.659Z,19.50
2018-01-30T09:15:43.691Z,19.50
2018-01-30T09:18:11.946Z,19.50
2018-01-30T09:20:40.174Z,19.50
2018-01-30T09:23:08.393Z,19.50
2018-01-30T09:25:36.669Z,19.50
2018-01-30T09:28:04.882Z,19.50
2018-01-30T09:30:33.088Z,19.50
2018-01-30T09:33:05.372Z,19.50
2018-01-30T09:35:33.697Z,19.50
2018-01-30T09:38:01.895Z,19.50
2018-01-30T09:40:30.858Z,19.50
2018-01-30T09:42:59.112Z,19.50
2018-01-30T09:45:27.588Z,19.50
2018-01-30T09:47:55.809Z,19.40
2018-01-30T09:50:24.026Z,19.50
2018-01-30T09:52:52.200Z,19.40
2018-01-30T09:55:20.431Z,19.40
2018-01-30T09:57:48.757Z,19.40
2018-01-30T10:00:17.714Z,19.40
2018-01-30T10:02:46.661Z,19.40
2018-01-30T10:05:14.841Z,19.40
2018-01-30T10:07:43.050Z,19.40
2018-01-30T10:10:12.012Z,19.40
2018-01-30T10:12:40.246Z,19.40
2018-01-30T10:15:08.517Z,19.40
2018-01-30T10:17:36.779Z,19.40
2018-01-30T10:20:05.764Z,19.40
2018-01-30T10:22:34.042Z,19.40
2018-01-30T10:25:04.335Z,19.40
2018-01-30T10:27:32.535Z,19.40
2018-01-30T10:30:01.606Z,19.40
2018-01-30T10:32:29.848Z,19.40
2018-01-30T10:34:58.054Z,19.40
2018-01-30T10:37:26.280Z,19.40
2018-01-30T10:39:54.590Z,19.40
2018-01-30T10:42:22.782Z,19.40
2018-01-30T10:44:51.002Z,19.40
2018-01-30T10:47:19.191Z,19.40
2018-01-30T10:49:49.443Z,19.40
2018-01-30T10:52:17.693Z,19.40
2018-01-30T10:54:45.996Z,19.40
2018-01-30T10:57:14.237Z,19.40
2018-01-30T10:59:42.543Z,19.30
2018-01-30T11:02:10.752Z,19.30
2018-01-30T11:04:39.010Z,19.40
2018-01-30T11:07:08.064Z,19.40
2018-01-30T11:09:36.303Z,19.40
2018-01-30T11:12:04.548Z,19.40
2018-01-30T11:14:33.508Z,19.40
2018-01-30T11:17:01.689Z,19.40
2018-01-30T11:19:30.954Z,19.40
2018-01-30T11:21:59.231Z,19.40
2018-01-30T11:24:27.543Z,19.40
2018-01-30T11:26:55.770Z,19.40
2018-01-30T11:29:24.392Z,19.40
2018-01-30T11:31:52.702Z,19.40
2018-01-30T11:34:21.750Z,19.40
2018-01-30T11:36:50.071Z,19.40
2018-01-30T11:39:19.126Z,19.40
2018-01-30T11:41:47.371Z,19.40
2018-01-30T11:44:15.642Z,19.40
2018-01-30T11:46:43.995Z,19.40
2018-01-30T11:49:12.991Z,19.40
2018-01-30T11:51:41.455Z,19.40
2018-01-30T11:54:10.462Z,19.40
2018-01-30T11:56:39.616Z,19.40
2018-01-30T11:59:07.810Z,19.40
2018-01-30T12:01:36.035Z,19.40
2018-01-30T12:04:04.366Z,19.40
2018-01-30T12:06:32.600Z,19.40
2018-01-30T12:09:00.852Z,19.40
2018-01-30T12:11:29.185Z,19.40
2018-01-30T12:13:57.433Z,19.40
2018-01-30T12:16:26.662Z,19.40
2018-01-30T12:18:54.974Z,19.40
2018-01-30T12:21:23.783Z,19.40
2018-01-30T12:23:52.065Z,19.40
2018-01-30T12:26:20.807Z,19.40
2018-01-30T12:28:49.591Z,19.40
2018-01-30T12:31:17.896Z,19.40
2018-01-30T12:33:46.381Z,19.40
2018-01-30T12:36:15.678Z,19.40
2018-01-30T12:38:43.998Z,19.40
2018-01-30T12:41:12.283Z,19.40
2018-01-30T12:43:40.646Z,19.40
2018-01-30T12:46:09.774Z,19.40
2018-01-30T12:48:38.280Z,19.40
2018-01-30T12:51:06.473Z,19.40
2018-01-30T12:53:34.682Z,19.40
2018-01-30T12:56:02.998Z,19.40
2018-01-30T12:58:31.281Z,19.40
2018-01-30T13:00:59.489Z,19.40
2018-01-30T13:03:27.712Z,19.40
2018-01-30T13:05:56.676Z,19.40
2018-01-30T13:08:24.941Z,19.40
2018-01-30T13:10:53.264Z,19.40
2018-01-30T13:13:21.452Z,19.40
2018-01-30T13:15:49.645Z,19.40
2018-01-30T13:18:17.834Z,19.40
2018-01-30T13:20:46.028Z,19.40
2018-01-30T13:23:14.993Z,19.40
2018-01-30T13:25:43.369Z,19.40
2018-01-30T13:28:12.468Z,19.30
2018-01-30T13:30:40.665Z,19.30
2018-01-30T13:33:09.817Z,19.30
2018-01-30T13:35:38.101Z,19.30
2018-01-30T13:38:07.358Z,19.30
2018-01-30T13:40:35.601Z,19.30
2018-01-30T13:43:03.843Z,19.30
2018-01-30T13:45:32.897Z,19.30
2018-01-30T13:48:01.101Z,19.30
2018-01-30T13:50:30.747Z,19.30
2018-01-30T13:52:58.933Z,19.30
2018-01-30T13:55:28.215Z,19.30
2018-01-30T13:57:57.221Z,19.30
2018-01-30T14:00:25.422Z,19.30
2018-01-30T14:02:53.692Z,19.30
2018-01-30T14:05:21.905Z,19.30
2018-01-30T14:07:50.183Z,19.40
2018-01-30T14:10:18.974Z,19.40
2018-01-30T14:12:47.323Z,19.40
2018-01-30T14:15:15.524Z,19.40
2018-01-30T14:17:43.835Z,19.40
2018-01-30T14:20:12.781Z,19.30
2018-01-30T14:22:41.001Z,19.30
2018-01-30T14:25:09.224Z,19.40
2018-01-30T14:27:37.590Z,19.40
2018-01-30T14:30:05.807Z,19.30
2018-01-30T14:32:35.252Z,19.30
2018-01-30T14:35:03.501Z,19.30
2018-01-30T14:37:31.891Z,19.30
2018-01-30T14:40:00.261Z,19.40
2018-01-30T14:42:29.251Z,19.30
2018-01-30T14:44:58.205Z,19.30
2018-01-30T14:47:26.493Z,19.30
2018-01-30T14:49:54.764Z,19.30
2018-01-30T14:52:24.046Z,19.30
2018-01-30T14:54:52.977Z,19.30
2018-01-30T14:57:21.218Z,19.30
2018-01-30T14:59:49.668Z,19.20
2018-01-30T15:02:17.985Z,19.30
2018-01-30T15:04:46.326Z,19.30
2018-01-30T15:07:14.533Z,19.20
2018-01-30T15:09:42.773Z,19.20
2018-01-30T15:12:10.984Z,19.20
2018-01-30T15:14:39.702Z,19.30
2018-01-30T15:17:09.627Z,19.20
2018-01-30T15:19:38.653Z,19.30
2018-01-30T15:22:06.894Z,19.20
2018-01-30T15:24:35.958Z,19.20
2018-01-30T15:27:04.304Z,19.20
2018-01-30T15:29:33.559Z,19.20
2018-01-30T15:32:02.545Z,19.20
2018-01-30T15:34:31.554Z,19.30
2018-01-30T15:37:00.949Z,19.20
2018-01-30T15:39:30.033Z,19.20
2018-01-30T15:41:58.445Z,19.30
2018-01-30T15:44:26.935Z,19.30
2018-01-30T15:46:55.309Z,19.30
2018-01-30T15:49:23.944Z,19.30
2018-01-30T15:51:53.159Z,19.30
2018-01-30T15:54:22.392Z,19.30
2018-01-30T15:56:50.642Z,19.30
2018-01-30T15:59:19.963Z,19.30
2018-01-30T16:01:48.140Z,19.40
2018-01-30T16:04:16.412Z,19.30
2018-01-30T16:06:45.591Z,19.30
2018-01-30T16:09:13.814Z,19.30
2018-01-30T16:11:42.170Z,19.30
2018-01-30T16:14:10.406Z,19.30
2018-01-30T16:16:38.688Z,19.30
2018-01-30T16:19:07.019Z,19.40
2018-01-30T16:21:36.030Z,19.30
2018-01-30T16:24:04.340Z,19.30
2018-01-30T16:26:32.822Z,19.40
2018-01-30T16:29:01.040Z,19.30
2018-01-30T16:31:29.231Z,19.30
2018-01-30T16:33:57.471Z,19.30
2018-01-30T16:36:26.669Z,19.30
2018-01-30T16:38:55.024Z,19.30
2018-01-30T16:41:23.201Z,19.30
2018-01-30T16:43:51.521Z,19.30
2018-01-30T16:46:19.735Z,19.30
2018-01-30T16:48:48.038Z,19.30
2018-01-30T16:51:16.224Z,19.30
2018-01-30T16:53:44.505Z,19.30
2018-01-30T16:56:12.702Z,19.30
2018-01-30T16:58:40.916Z,19.30
2018-01-30T17:01:09.137Z,19.30
2018-01-30T17:03:37.345Z,19.30
2018-01-30T17:06:05.669Z,19.30
2018-01-30T17:08:33.870Z,19.30
2018-01-30T17:11:02.054Z,19.30
2018-01-30T17:13:31.117Z,19.30
2018-01-30T17:15:59.361Z,19.30
2018-01-30T17:18:27.557Z,19.30
2018-01-30T17:20:55.758Z,19.30
2018-01-30T17:23:23.946Z,19.30
2018-01-30T17:25:52.929Z,19.30
2018-01-30T17:28:21.898Z,19.30
2018-01-30T17:30:50.093Z,19.30
2018-01-30T17:33:18.376Z,19.30
2018-01-30T17:35:47.358Z,19.30
2018-01-30T17:38:15.579Z,19.30
2018-01-30T17:40:43.821Z,19.30
2018-01-30T17:43:12.871Z,19.30
2018-01-30T17:45:41.805Z,19.30
2018-01-30T17:48:12.667Z,19.30
2018-01-30T17:50:40.870Z,19.30
2018-01-30T17:53:09.134Z,19.30
2018-01-30T17:55:37.380Z,19.30
2018-01-30T17:58:05.558Z,19.30
2018-01-30T18:00:33.795Z,19.30
2018-01-30T18:03:03.097Z,19.30
2018-01-30T18:05:31.283Z,19.30
2018-01-30T18:08:00.219Z,19.30
2018-01-30T18:10:28.422Z,19.30
2018-01-30T18:12:56.722Z,19.30
2018-01-30T18:15:25.710Z,19.30
2018-01-30T18:17:53.900Z,19.30
2018-01-30T18:20:22.865Z,19.20
2018-01-30T18:22:51.053Z,19.30
2018-01-30T18:25:19.239Z,19.30
2018-01-30T18:27:47.451Z,19.20
2018-01-30T18:30:15.699Z,19.30
2018-01-30T18:32:43.899Z,19.30
2018-01-30T18:35:12.108Z,19.30
2018-01-30T18:37:40.328Z,19.20
2018-01-30T18:40:08.625Z,19.20
2018-01-30T18:42:36.816Z,19.30
2018-01-30T18:45:05.075Z,19.30
2018-01-30T18:47:34.025Z,19.30
2018-01-30T18:50:02.380Z,19.30
2018-01-30T18:52:30.608Z,19.20
2018-01-30T18:54:58.867Z,19.30
2018-01-30T18:57:27.142Z,19.30
2018-01-30T18:59:55.397Z,19.30
2018-01-30T19:02:23.634Z,19.30
2018-01-30T19:04:51.873Z,19.30
2018-01-30T19:07:20.075Z,19.20
2018-01-30T19:09:48.345Z,19.20
2018-01-30T19:12:16.516Z,19.20
2018-01-30T19:14:44.809Z,19.30
2018-01-30T19:17:13.075Z,19.30
2018-01-30T19:19:41.321Z,19.20
2018-01-30T19:22:09.576Z,19.30
2018-01-30T19:24:37.781Z,19.30
2018-01-30T19:27:05.976Z,19.30
2018-01-30T19:29:34.177Z,19.30
2018-01-30T19:32:03.250Z,19.30
2018-01-30T19:34:31.466Z,19.30
2018-01-30T19:36:59.666Z,19.30
2018-01-30T19:39:27.864Z,19.30
2018-01-30T19:41:56.110Z,19.30
2018-01-30T19:44:24.304Z,19.30
2018-01-30T19:46:52.489Z,19.30
2018-01-30T19:49:20.706Z,19.20
2018-01-30T19:51:48.990Z,19.20
2018-01-30T19:54:17.195Z,19.20
2018-01-30T19:56:45.413Z,19.30
2018-01-30T19:59:14.405Z,19.30
2018-01-30T20:01:42.647Z,19.20
2018-01-30T20:04:10.835Z,19.30
2018-01-30T20:06:39.027Z,19.30
2018-01-30T20:09:08.156Z,19.30
2018-01-30T20:11:36.424Z,19.30
2018-01-30T20:14:04.628Z,19.30
2018-01-30T20:16:32.885Z,19.30
2018-01-30T20:19:01.102Z,19.30
2018-01-30T20:21:29.402Z,19.30
2018-01-30T20:23:58.363Z,19.30
2018-01-30T20:26:32.109Z,19.30
2018-01-30T20:29:00.316Z,19.30
2018-01-30T20:31:28.499Z,19.30
2018-01-30T20:33:56.703Z,19.30
2018-01-30T20:36:24.862Z,19.30
2018-01-30T20:38:53.064Z,19.40
2018-01-30T20:41:22.083Z,19.40
2018-01-30T20:43:50.305Z,19.40
2018-01-30T20:46:18.658Z,19.40
2018-01-30T20:48:46.866Z,19.40
2018-01-30T20:51:15.088Z,19.40
2018-01-30T20:53:43.325Z,19.40
2018-01-30T20:56:12.349Z,19.40
2018-01-30T20:58:40.557Z,19.40
2018-01-30T21:01:08.739Z,19.40
2018-01-30T21:03:36.980Z,19.40
2018-01-30T21:06:05.244Z,19.40
2018-01-30T21:08:33.582Z,19.40
2018-01-30T21:11:02.532Z,19.40
2018-01-30T21:13:30.722Z,19.40
2018-01-30T21:15:58.943Z,19.40
2018-01-30T21:18:27.909Z,19.40
2018-01-30T21:20:56.090Z,19.40
2018-01-30T21:23:24.341Z,19.40
2018-01-30T21:25:52.553Z,19.40
2018-01-30T21:28:21.522Z,19.40
2018-01-30T21:30:49.759Z,19.40
2018-01-30T21:33:17.952Z,19.40
2018-01-30T21:35:46.197Z,19.40
2018-01-30T21:38:14.378Z,19.40
2018-01-30T21:40:42.542Z,19.40
2018-01-30T21:43:10.719Z,19.40
2018-01-30T21:45:38.891Z,19.50
2018-01-30T21:48:07.109Z,19.40
2018-01-30T21:50:35.378Z,19.50
2018-01-30T21:53:03.644Z,19.50
2018-01-30T21:55:32.012Z,19.50
2018-01-30T21:58:00.227Z,19.40
2018-01-30T22:00:29.250Z,19.40
2018-01-30T22:02:57.596Z,19.40
2018-01-30T22:05:26.617Z,19.20
2018-01-30T22:07:55.845Z,19.20
2018-01-30T22:10:24.117Z,19.20
2018-01-30T22:12:52.374Z,19.20
2018-01-30T22:15:20.609Z,19.20
2018-01-30T22:17:49.598Z,19.10
2018-01-30T22:20:18.643Z,19.10
2018-01-30T22:22:46.923Z,19.10
2018-01-30T22:25:15.329Z,19.10
2018-01-30T22:27:43.612Z,19.00
2018-01-30T22:30:11.846Z,19.00
2018-01-30T22:32:40.240Z,19.00
2018-01-30T22:35:08.490Z,19.00
2018-01-30T22:37:36.810Z,19.00
2018-01-30T22:40:05.096Z,19.00
2018-01-30T22:42:34.165Z,19.00
2018-01-30T22:45:02.422Z,19.00
